createdAt,value
2023-03-18T00:00:11.627Z,10.85
2023-03-18T00:02:39.425Z,10.76
2023-03-18T00:05:07.697Z,10.81
2023-03-18T00:07:36.231Z,10.82
2023-03-18T00:10:04.538Z,10.78
2023-03-18T00:12:32.378Z,10.73
2023-03-18T00:15:00.481Z,10.69
2023-03-18T00:17:26.952Z,10.67
2023-03-18T00:19:53.838Z,10.64
2023-03-18T00:22:20.499Z,10.62
2023-03-18T00:24:48.916Z,10.67
2023-03-18T00:27:15.889Z,10.68
2023-03-18T00:29:43.119Z,10.69
2023-03-18T00:32:09.851Z,10.70
2023-03-18T00:34:36.368Z,10.67
2023-03-18T00:37:04.392Z,10.59
2023-03-18T00:39:32.956Z,10.65
2023-03-18T00:42:02.125Z,10.50
2023-03-18T00:44:28.898Z,10.63
2023-03-18T00:46:55.465Z,10.54
2023-03-18T00:49:22.127Z,10.48
2023-03-18T00:51:48.654Z,10.57
2023-03-18T00:54:18.543Z,10.49
2023-03-18T00:56:45.411Z,10.54
2023-03-18T00:59:11.976Z,10.41
2023-03-18T01:01:39.313Z,10.44
2023-03-18T01:04:07.223Z,10.38
2023-03-18T01:06:37.345Z,10.31
2023-03-18T01:09:05.699Z,10.25
2023-03-18T01:11:33.303Z,10.34
2023-03-18T01:14:00.498Z,10.30
2023-03-18T01:16:27.614Z,10.28
2023-03-18T01:18:54.641Z,10.23
2023-03-18T01:21:22.262Z,10.24
2023-03-18T01:23:53.618Z,10.17
2023-03-18T01:26:20.472Z,9.99
2023-03-18T01:28:47.998Z,10.03
2023-03-18T01:31:15.501Z,9.93
2023-03-18T01:33:44.368Z,9.97
2023-03-18T01:36:11.768Z,9.92
2023-03-18T01:38:38.435Z,9.91
2023-03-18T01:41:11.123Z,9.94
2023-03-18T01:43:41.018Z,9.93
2023-03-18T01:46:47.449Z,9.95
2023-03-18T01:49:22.452Z,9.94
2023-03-18T01:51:59.645Z,9.92
2023-03-18T01:54:28.742Z,9.89
2023-03-18T01:56:56.708Z,9.90
2023-03-18T01:59:26.446Z,9.82
2023-03-18T02:01:59.152Z,9.83
2023-03-18T02:04:31.102Z,9.90
2023-03-18T02:06:59.154Z,9.84
2023-03-18T02:09:25.768Z,9.74
2023-03-18T02:11:52.944Z,9.75
2023-03-18T02:14:25.648Z,9.41
2023-03-18T02:17:06.145Z,9.25
2023-03-18T02:19:52.823Z,9.20
2023-03-18T02:22:39.527Z,9.38
2023-03-18T02:25:21.894Z,9.42
2023-03-18T02:28:03.841Z,9.35
2023-03-18T02:30:43.660Z,9.42
2023-03-18T02:33:14.873Z,9.44
2023-03-18T02:35:44.772Z,9.40
2023-03-18T02:38:11.461Z,9.38
2023-03-18T02:40:40.674Z,9.31
2023-03-18T02:43:24.624Z,9.39
2023-03-18T02:46:31.180Z,9.34
2023-03-18T02:49:04.590Z,9.29
2023-03-18T02:51:31.269Z,9.25
2023-03-18T02:54:03.245Z,9.34
2023-03-18T02:56:30.106Z,9.38
2023-03-18T02:58:57.773Z,9.39
2023-03-18T03:01:25.713Z,9.44
2023-03-18T03:03:52.275Z,9.46
2023-03-18T03:06:19.123Z,9.49
2023-03-18T03:08:45.998Z,9.33
2023-03-18T03:11:12.773Z,9.13
2023-03-18T03:13:41.823Z,8.94
2023-03-18T03:16:10.788Z,8.89
2023-03-18T03:18:37.698Z,9.05
2023-03-18T03:21:05.152Z,9.08
2023-03-18T03:23:32.451Z,9.15
2023-03-18T03:25:59.112Z,9.24
2023-03-18T03:28:27.032Z,9.29
2023-03-18T03:30:55.695Z,9.37
2023-03-18T03:33:22.865Z,9.39
2023-03-18T03:35:49.668Z,9.27
2023-03-18T03:38:16.641Z,9.27
2023-03-18T03:40:44.912Z,9.21
2023-03-18T03:43:13.073Z,9.20
2023-03-18T03:45:40.663Z,9.13
2023-03-18T03:48:08.201Z,9.05
2023-03-18T03:50:37.100Z,8.99
2023-03-18T03:53:04.761Z,8.91
2023-03-18T03:55:31.667Z,8.92
2023-03-18T03:57:58.126Z,8.88
2023-03-18T04:00:26.594Z,8.77
2023-03-18T04:02:54.083Z,8.48
2023-03-18T04:05:24.536Z,8.38
2023-03-18T04:07:52.381Z,8.43
2023-03-18T04:10:24.132Z,8.43
2023-03-18T04:12:50.894Z,8.58
2023-03-18T04:15:19.646Z,8.65
2023-03-18T04:17:49.886Z,8.44
2023-03-18T04:20:18.667Z,8.55
2023-03-18T04:22:46.068Z,8.62
2023-03-18T04:25:14.803Z,8.60
2023-03-18T04:27:41.736Z,8.53
2023-03-18T04:30:12.514Z,8.46
2023-03-18T04:32:54.953Z,8.44
2023-03-18T04:35:23.344Z,8.26
2023-03-18T04:37:50.632Z,8.22
2023-03-18T04:40:18.240Z,8.13
2023-03-18T04:42:47.669Z,8.06
2023-03-18T04:45:16.562Z,8.17
2023-03-18T04:47:44.273Z,8.07
2023-03-18T04:50:12.373Z,8.12
2023-03-18T04:52:40.680Z,8.08
2023-03-18T04:55:09.477Z,8.06
2023-03-18T04:57:38.658Z,7.83
2023-03-18T05:00:12.202Z,7.68
2023-03-18T05:02:40.994Z,7.46
2023-03-18T05:05:11.439Z,7.39
2023-03-18T05:07:44.108Z,7.54
2023-03-18T05:10:14.120Z,7.38
2023-03-18T05:12:41.951Z,7.32
2023-03-18T05:15:12.120Z,7.40
2023-03-18T05:17:43.692Z,7.39
2023-03-18T05:20:13.299Z,7.40
2023-03-18T05:22:40.222Z,7.22
2023-03-18T05:25:14.782Z,7.08
2023-03-18T05:27:41.993Z,7.10
2023-03-18T05:30:15.992Z,7.11
2023-03-18T05:32:47.398Z,7.17
2023-03-18T05:35:14.233Z,7.08
2023-03-18T05:37:47.700Z,7.18
2023-03-18T05:40:14.834Z,7.21
2023-03-18T05:42:55.793Z,7.30
2023-03-18T05:45:30.812Z,7.30
2023-03-18T05:47:58.079Z,7.39
2023-03-18T05:50:34.312Z,7.28
2023-03-18T05:53:05.440Z,7.22
2023-03-18T05:55:36.591Z,7.23
2023-03-18T05:58:03.959Z,7.23
2023-03-18T06:00:33.044Z,7.27
2023-03-18T06:03:01.746Z,7.39
2023-03-18T06:05:30.038Z,7.41
2023-03-18T06:07:57.520Z,7.11
2023-03-18T06:10:25.163Z,7.18
2023-03-18T06:12:52.631Z,7.22
2023-03-18T06:15:21.150Z,6.89
2023-03-18T06:17:48.746Z,6.81
2023-03-18T06:20:16.458Z,7.08
2023-03-18T06:22:48.833Z,7.16
2023-03-18T06:25:20.946Z,7.36
2023-03-18T06:27:48.886Z,7.74
2023-03-18T06:30:18.478Z,7.90
2023-03-18T06:32:45.146Z,8.16
2023-03-18T06:35:12.780Z,8.54
2023-03-18T06:37:40.009Z,8.87
2023-03-18T06:40:10.496Z,9.27
2023-03-18T06:42:37.549Z,9.59
2023-03-18T06:45:15.167Z,10.02
2023-03-18T06:47:50.519Z,10.53
2023-03-18T06:50:17.524Z,11.04
2023-03-18T06:52:44.006Z,11.50
2023-03-18T06:55:15.707Z,11.89
2023-03-18T06:57:45.613Z,12.27
2023-03-18T07:00:16.255Z,12.59
2023-03-18T07:02:43.330Z,12.94
2023-03-18T07:05:12.733Z,13.32
2023-03-18T07:07:40.667Z,13.57
2023-03-18T07:10:09.509Z,13.65
2023-03-18T07:12:36.074Z,13.61
2023-03-18T07:15:04.223Z,14.00
2023-03-18T07:17:30.897Z,14.16
2023-03-18T07:19:58.066Z,14.40
2023-03-18T07:22:24.661Z,14.71
2023-03-18T07:24:52.318Z,14.82
2023-03-18T07:27:20.622Z,14.99
2023-03-18T07:29:47.228Z,15.15
2023-03-18T07:32:13.995Z,15.22
2023-03-18T07:34:42.512Z,15.47
2023-03-18T07:37:09.072Z,15.55
2023-03-18T07:39:35.518Z,15.78
2023-03-18T07:42:02.107Z,15.93
2023-03-18T07:44:30.209Z,16.07
2023-03-18T07:46:57.361Z,16.11
2023-03-18T07:49:24.023Z,16.25
2023-03-18T07:51:50.741Z,16.45
2023-03-18T07:54:17.970Z,16.52
2023-03-18T07:56:44.573Z,16.59
2023-03-18T07:59:12.326Z,16.86
2023-03-18T08:02:53.597Z,16.91
2023-03-18T08:05:21.998Z,17.01
2023-03-18T08:07:48.669Z,17.20
2023-03-18T08:32:49.264Z,18.58
2023-03-18T08:35:15.728Z,18.78
2023-03-18T08:37:42.529Z,18.66
2023-03-18T08:43:25.880Z,18.82
2023-03-18T08:45:55.829Z,18.85
2023-03-18T08:48:23.450Z,18.70
2023-03-18T08:50:49.909Z,18.63
2023-03-18T08:53:16.780Z,18.47
2023-03-18T08:55:43.566Z,18.23
2023-03-18T08:58:10.359Z,18.02
2023-03-18T09:00:39.095Z,17.84
2023-03-18T09:03:05.684Z,17.91
2023-03-18T09:05:32.895Z,18.10
2023-03-18T09:08:00.349Z,18.30
2023-03-18T09:10:30.756Z,18.43
2023-03-18T09:13:22.488Z,18.74
2023-03-18T09:17:45.324Z,18.71
2023-03-18T09:20:17.417Z,18.68
2023-03-18T09:22:46.448Z,18.62
2023-03-18T09:25:13.484Z,18.71
2023-03-18T09:27:39.932Z,18.87
2023-03-18T09:30:08.086Z,18.98
2023-03-18T09:32:34.606Z,18.91
2023-03-18T09:35:01.570Z,18.66
2023-03-18T09:37:28.039Z,18.41
2023-03-18T09:39:54.578Z,18.20
2023-03-18T09:42:51.318Z,18.01
2023-03-18T09:45:46.948Z,17.65
2023-03-18T09:48:31.892Z,17.56
2023-03-18T09:51:10.244Z,17.44
2023-03-18T09:53:50.108Z,17.40
2023-03-18T09:56:22.706Z,17.30
2023-03-18T09:59:00.821Z,17.41
2023-03-18T10:01:28.992Z,17.67
2023-03-18T10:04:11.390Z,17.79
2023-03-18T10:06:42.922Z,17.87
2023-03-18T10:09:24.383Z,18.22
2023-03-18T10:11:53.913Z,18.60
2023-03-18T10:14:26.474Z,18.79
2023-03-18T10:17:05.776Z,18.49
2023-03-18T10:19:34.842Z,18.72
2023-03-18T10:22:32.200Z,18.92
2023-03-18T10:25:12.550Z,19.12
2023-03-18T10:27:49.193Z,19.07
2023-03-18T10:30:45.039Z,19.04
2023-03-18T10:33:27.774Z,18.92
2023-03-18T10:36:13.300Z,18.80
2023-03-18T10:38:44.787Z,18.91
2023-03-18T10:41:15.810Z,19.19
2023-03-18T10:43:43.036Z,19.18
2023-03-18T10:46:14.440Z,18.65
2023-03-18T10:49:04.553Z,18.09
2023-03-18T10:51:50.043Z,18.16
2023-03-18T10:54:32.881Z,18.14
2023-03-18T10:56:59.361Z,18.42
2023-03-18T10:59:28.540Z,18.69
2023-03-18T11:02:04.692Z,19.03
2023-03-18T11:04:38.908Z,19.25
2023-03-18T11:07:12.827Z,19.16
2023-03-18T11:09:42.226Z,19.21
2023-03-18T11:12:19.318Z,19.01
2023-03-18T11:14:50.163Z,18.88
2023-03-18T11:17:28.106Z,18.85
2023-03-18T11:20:25.614Z,18.85
2023-03-18T11:22:55.607Z,18.79
2023-03-18T11:25:26.468Z,18.68
2023-03-18T11:27:59.465Z,18.66
2023-03-18T11:30:34.321Z,18.69
2023-03-18T11:33:12.651Z,18.72
2023-03-18T11:35:46.243Z,18.79
2023-03-18T11:38:29.409Z,18.73
2023-03-18T11:41:07.078Z,18.74
2023-03-18T11:43:33.560Z,18.67
2023-03-18T11:46:03.346Z,18.37
2023-03-18T11:48:39.295Z,18.42
2023-03-18T11:51:30.452Z,18.39
2023-03-18T11:54:15.760Z,18.34
2023-03-18T11:56:49.636Z,18.31
2023-03-18T11:59:40.495Z,18.26
2023-03-18T12:02:31.992Z,18.31
2023-03-18T12:05:32.538Z,18.37
2023-03-18T12:08:18.917Z,18.31
2023-03-18T12:10:57.243Z,18.39
2023-03-18T12:14:09.930Z,18.38
2023-03-18T12:17:06.391Z,18.35
2023-03-18T12:19:35.629Z,18.35
2023-03-18T12:22:50.518Z,18.37
2023-03-18T12:25:34.537Z,18.42
2023-03-18T12:28:13.658Z,18.39
2023-03-18T12:30:49.063Z,18.34
2023-03-18T12:33:21.932Z,18.40
2023-03-18T12:35:58.701Z,18.38
2023-03-18T12:38:56.706Z,18.37
2023-03-18T12:41:42.129Z,17.92
2023-03-18T12:44:17.294Z,17.57
2023-03-18T12:47:00.467Z,17.69
2023-03-18T12:49:37.515Z,17.78
2023-03-18T12:52:33.398Z,17.41
2023-03-18T12:55:16.172Z,17.47
2023-03-18T12:57:48.621Z,17.41
2023-03-18T13:00:30.109Z,17.62
2023-03-18T13:03:06.909Z,17.86
2023-03-18T13:05:43.632Z,17.93
2023-03-18T13:08:41.912Z,18.03
2023-03-18T13:11:20.077Z,18.27
2023-03-18T13:13:52.145Z,18.45
2023-03-18T13:16:21.626Z,18.51
2023-03-18T13:18:53.041Z,18.54
2023-03-18T13:21:23.182Z,18.29
2023-03-18T13:23:56.253Z,17.72
2023-03-18T13:27:00.240Z,17.32
2023-03-18T13:29:45.976Z,17.22
2023-03-18T13:32:12.425Z,17.26
2023-03-18T13:34:56.689Z,17.41
2023-03-18T13:37:36.141Z,17.22
2023-03-18T13:40:20.654Z,17.21
2023-03-18T13:42:49.220Z,17.30
2023-03-18T13:45:33.812Z,17.46
2023-03-18T13:48:06.152Z,17.36
2023-03-18T13:50:35.001Z,17.34
2023-03-18T13:53:03.168Z,17.50
2023-03-18T13:55:42.085Z,17.56
2023-03-18T13:58:19.377Z,17.61
2023-03-18T14:01:23.898Z,17.67
2023-03-18T14:03:50.292Z,17.76
2023-03-18T14:06:16.645Z,17.81
2023-03-18T14:08:43.140Z,17.73
2023-03-18T14:11:25.832Z,17.77
2023-03-18T14:13:54.135Z,17.66
2023-03-18T14:16:29.742Z,17.66
2023-03-18T14:19:10.100Z,17.76
2023-03-18T14:21:48.206Z,17.79
2023-03-18T14:24:17.689Z,17.81
2023-03-18T14:26:59.535Z,17.85
2023-03-18T14:29:31.147Z,17.92
2023-03-18T14:32:00.393Z,17.75
2023-03-18T14:34:33.987Z,17.77
2023-03-18T14:37:19.210Z,17.86
2023-03-18T14:39:51.474Z,17.85
2023-03-18T14:42:44.040Z,17.76
2023-03-18T14:45:23.514Z,17.75
2023-03-18T14:47:51.342Z,17.62
2023-03-18T14:50:30.118Z,17.43
2023-03-18T14:53:08.663Z,17.41
2023-03-18T14:55:37.474Z,17.42
2023-03-18T14:58:04.321Z,17.25
2023-03-18T15:00:35.461Z,17.26
2023-03-18T15:03:26.570Z,17.34
2023-03-18T15:05:58.695Z,17.33
2023-03-18T15:08:44.615Z,17.18
2023-03-18T15:11:13.238Z,17.20
2023-03-18T15:13:42.306Z,16.98
2023-03-18T15:16:16.723Z,16.94
2023-03-18T15:18:43.664Z,16.79
2023-03-18T15:21:17.893Z,16.87
2023-03-18T15:23:53.975Z,16.88
2023-03-18T15:26:38.574Z,16.79
2023-03-18T15:29:43.713Z,16.97
2023-03-18T15:32:19.191Z,16.92
2023-03-18T15:34:53.006Z,16.93
2023-03-18T15:37:39.981Z,16.96
2023-03-18T15:40:28.917Z,16.89
2023-03-18T15:42:57.980Z,16.40
2023-03-18T15:45:28.102Z,16.49
2023-03-18T15:47:55.364Z,16.51
2023-03-18T15:50:25.976Z,16.61
2023-03-18T15:53:06.228Z,16.65
2023-03-18T15:55:50.979Z,16.64
2023-03-18T15:58:34.052Z,16.41
2023-03-18T16:01:00.894Z,16.47
2023-03-18T16:03:31.227Z,16.31
2023-03-18T16:05:58.262Z,16.39
2023-03-18T16:08:25.311Z,16.40
2023-03-18T16:10:55.845Z,16.48
2023-03-18T16:13:29.379Z,16.51
2023-03-18T16:15:56.706Z,16.51
2023-03-18T16:18:23.156Z,16.48
2023-03-18T16:20:50.275Z,16.46
2023-03-18T16:23:17.540Z,16.42
2023-03-18T16:25:47.061Z,16.48
2023-03-18T16:28:23.344Z,16.52
2023-03-18T16:30:52.385Z,16.50
2023-03-18T16:33:20.032Z,16.47
2023-03-18T16:35:54.502Z,16.51
2023-03-18T16:38:20.958Z,16.46
2023-03-18T16:40:47.370Z,16.46
2023-03-18T16:43:31.183Z,16.43
2023-03-18T16:46:00.637Z,16.42
2023-03-18T16:48:27.735Z,16.40
2023-03-18T16:50:55.510Z,16.36
2023-03-18T16:53:29.525Z,16.31
2023-03-18T16:56:16.530Z,16.26
2023-03-18T16:58:44.433Z,16.14
2023-03-18T17:01:16.475Z,16.14
2023-03-18T17:03:44.133Z,16.09
2023-03-18T17:06:10.730Z,15.96
2023-03-18T17:08:37.735Z,15.95
2023-03-18T17:11:04.852Z,15.96
2023-03-18T17:13:34.860Z,15.91
2023-03-18T17:16:01.733Z,15.87
2023-03-18T17:18:28.228Z,15.65
2023-03-18T17:20:54.833Z,15.81
2023-03-18T17:23:28.839Z,15.74
2023-03-18T17:25:59.263Z,15.68
2023-03-18T17:28:39.184Z,15.58
2023-03-18T17:31:06.617Z,15.52
2023-03-18T17:33:35.434Z,15.41
2023-03-18T17:36:02.216Z,15.37
2023-03-18T17:38:30.975Z,15.37
2023-03-18T17:40:58.730Z,15.30
2023-03-18T17:43:28.712Z,15.21
2023-03-18T17:45:56.809Z,15.17
2023-03-18T17:48:25.584Z,15.12
2023-03-18T17:50:58.485Z,15.04
2023-03-18T17:53:28.015Z,15.00
2023-03-18T17:55:54.984Z,14.89
2023-03-18T17:58:24.565Z,14.83
2023-03-18T18:00:53.802Z,14.68
2023-03-18T18:03:24.325Z,14.48
2023-03-18T18:05:51.454Z,14.37
2023-03-18T18:08:19.080Z,14.29
2023-03-18T18:10:45.836Z,14.14
2023-03-18T18:13:15.250Z,14.11
2023-03-18T18:15:43.347Z,14.05
2023-03-18T18:18:23.212Z,13.97
2023-03-18T18:20:54.264Z,13.93
2023-03-18T18:23:28.824Z,13.80
2023-03-18T18:25:57.722Z,13.55
2023-03-18T18:28:29.308Z,13.38
2023-03-18T18:30:55.867Z,13.20
2023-03-18T18:33:22.349Z,12.77
2023-03-18T18:35:48.857Z,12.83
2023-03-18T18:38:15.644Z,12.83
2023-03-18T18:40:42.514Z,12.79
2023-03-18T18:43:09.075Z,12.82
2023-03-18T18:45:36.195Z,12.74
2023-03-18T18:48:03.547Z,12.54
2023-03-18T18:50:35.503Z,12.39
2023-03-18T18:53:02.596Z,12.44
2023-03-18T18:55:28.996Z,12.41
2023-03-18T18:57:56.057Z,12.29
2023-03-18T19:00:23.602Z,12.41
2023-03-18T19:02:53.247Z,12.25
2023-03-18T19:05:19.961Z,12.25
2023-03-18T19:07:46.522Z,12.06
2023-03-18T19:10:15.107Z,12.07
2023-03-18T19:12:44.177Z,12.20
2023-03-18T19:15:13.449Z,12.27
2023-03-18T19:17:43.271Z,12.20
2023-03-18T19:20:25.052Z,12.02
2023-03-18T19:22:53.047Z,11.94
2023-03-18T19:25:19.697Z,11.95
2023-03-18T19:27:46.638Z,11.78
2023-03-18T19:30:21.438Z,11.46
2023-03-18T19:32:48.915Z,11.29
2023-03-18T19:35:15.615Z,11.42
2023-03-18T19:37:44.332Z,11.36
2023-03-18T19:40:23.664Z,11.36
2023-03-18T19:42:50.402Z,11.14
2023-03-18T19:45:17.815Z,11.09
2023-03-18T19:47:45.967Z,10.82
2023-03-18T19:50:17.446Z,10.76
2023-03-18T19:52:44.140Z,10.99
2023-03-18T19:55:15.666Z,10.95
2023-03-18T19:57:48.069Z,10.87
2023-03-18T20:00:23.602Z,10.74
2023-03-18T20:02:50.827Z,10.65
2023-03-18T20:05:22.411Z,10.56
2023-03-18T20:07:50.349Z,10.65
2023-03-18T20:10:18.705Z,10.72
2023-03-18T20:12:47.490Z,10.84
2023-03-18T20:15:20.312Z,10.88
2023-03-18T20:17:48.789Z,10.66
2023-03-18T20:20:17.861Z,10.63
2023-03-18T20:22:48.216Z,10.63
2023-03-18T20:25:24.342Z,10.43
2023-03-18T20:27:53.446Z,10.48
2023-03-18T20:30:23.082Z,10.14
2023-03-18T20:32:49.647Z,9.96
2023-03-18T20:35:16.812Z,10.03
2023-03-18T20:37:43.578Z,10.15
2023-03-18T20:40:20.833Z,10.21
2023-03-18T20:42:47.441Z,10.23
2023-03-18T20:45:15.790Z,10.05
2023-03-18T20:47:43.890Z,10.23
2023-03-18T20:50:22.664Z,10.30
2023-03-18T20:52:49.145Z,10.27
2023-03-18T20:55:20.164Z,10.22
2023-03-18T20:57:46.871Z,10.22
2023-03-18T21:00:18.848Z,10.25
2023-03-18T21:02:47.119Z,10.15
2023-03-18T21:05:14.591Z,10.12
2023-03-18T21:07:41.643Z,10.16
2023-03-18T21:10:09.419Z,10.17
2023-03-18T21:12:36.697Z,10.07
2023-03-18T21:15:03.935Z,9.98
2023-03-18T21:17:30.569Z,9.96
2023-03-18T21:20:05.021Z,9.75
2023-03-18T21:22:38.008Z,9.72
2023-03-18T21:25:06.091Z,9.65
2023-03-18T21:27:34.131Z,9.78
2023-03-18T21:30:01.882Z,9.66
2023-03-18T21:32:33.216Z,9.52
2023-03-18T21:34:59.735Z,9.46
2023-03-18T21:37:27.300Z,9.50
2023-03-18T21:40:19.606Z,9.59
2023-03-18T21:47:43.312Z,9.60
2023-03-18T21:50:30.330Z,9.53
2023-03-18T21:52:57.419Z,9.54
2023-03-18T21:55:23.837Z,9.41
2023-03-18T21:57:50.379Z,9.49
2023-03-18T22:00:20.026Z,9.34
2023-03-18T22:02:47.403Z,9.21
2023-03-18T22:05:20.400Z,9.15
2023-03-18T22:07:47.611Z,8.97
2023-03-18T22:10:19.857Z,8.86
2023-03-18T22:12:46.712Z,8.91
2023-03-18T22:15:35.746Z,9.11
2023-03-18T22:18:02.712Z,9.14
2023-03-18T22:20:29.374Z,9.20
2023-03-18T22:22:55.992Z,9.31
2023-03-18T22:25:31.713Z,9.32
2023-03-18T22:27:59.342Z,9.39
2023-03-18T22:30:27.424Z,9.37
2023-03-18T22:32:54.756Z,9.35
2023-03-18T22:35:25.452Z,9.32
2023-03-18T22:37:52.362Z,9.24
2023-03-18T22:40:28.107Z,9.29
2023-03-18T22:43:01.681Z,9.32
2023-03-18T22:45:30.475Z,9.37
2023-03-18T22:47:59.261Z,9.22
2023-03-18T22:50:27.971Z,9.17
2023-03-18T22:53:00.607Z,9.23
2023-03-18T22:55:31.927Z,9.20
2023-03-18T22:57:58.595Z,9.21
2023-03-18T23:00:33.458Z,9.20
2023-03-18T23:03:00.015Z,9.14
2023-03-18T23:05:27.207Z,9.17
2023-03-18T23:07:54.138Z,9.15
2023-03-18T23:10:21.357Z,9.20
2023-03-18T23:12:48.160Z,9.18
2023-03-18T23:15:20.716Z,9.18
2023-03-18T23:17:47.705Z,9.21
2023-03-18T23:20:16.665Z,9.16
2023-03-18T23:22:43.854Z,9.11
2023-03-18T23:25:16.461Z,9.17
2023-03-18T23:27:43.391Z,9.15
2023-03-18T23:30:12.374Z,9.19
2023-03-18T23:32:40.395Z,9.18
2023-03-18T23:35:08.875Z,9.13
2023-03-18T23:37:35.708Z,9.16
2023-03-18T23:40:03.055Z,9.07
2023-03-18T23:42:29.484Z,8.90
2023-03-18T23:44:55.940Z,8.82
2023-03-18T23:47:22.402Z,8.66
2023-03-18T23:49:48.898Z,8.61
2023-03-18T23:52:15.905Z,8.63
2023-03-18T23:54:42.405Z,8.52
2023-03-18T23:57:10.150Z,8.57
2023-03-18T23:59:37.519Z,8.44
